Time;durP1;ratioP1;P1;durP2;ratioP2;P2;SDS_P1;SDS_P2;PMS_P1;PMS_P2;Temp;Humidity;BMP_temperature;BMP_pressure;BME280_temperature;BME280_humidity;BME280_pressure;Samples;Min_cycle;Max_cycle;Signal;HPM_P1;HPM_P2
2022/05/24 00:01:10;;;;;;;9.25;2.90;;;;;;;19.24;62.68;99470.81;5085075;28;20321;-74
2022/05/24 00:03:36;;;;;;;7.00;2.53;;;;;;;19.38;61.87;99474.16;5103497;28;20452;-74
2022/05/24 00:06:01;;;;;;;6.65;2.58;;;;;;;19.31;62.12;99473.44;5121936;28;20084;-74
2022/05/24 00:08:27;;;;;;;10.43;2.47;;;;;;;19.07;62.67;99478.66;5122531;28;20070;-73
2022/05/24 00:10:53;;;;;;;6.25;2.50;;;;;;;18.81;64.05;99482.44;5122154;28;20032;-74
2022/05/24 00:13:18;;;;;;;5.25;2.70;;;;;;;18.71;64.72;99471.38;5121004;28;20260;-73
2022/05/24 00:15:44;;;;;;;10.27;3.17;;;;;;;18.79;64.52;99479.16;5122750;28;20058;-73
2022/05/24 00:18:19;;;;;;;5.65;2.72;;;;;;;18.79;64.13;99478.34;5120632;28;20034;-74
2022/05/24 00:20:48;;;;;;;6.65;2.47;;;;;;;18.72;64.64;99473.00;5102646;28;20171;-74
2022/05/24 00:23:14;;;;;;;12.63;3.30;;;;;;;18.88;63.95;99471.66;5103957;28;20447;-73
2022/05/24 00:25:42;;;;;;;7.20;2.97;;;;;;;18.89;64.40;99472.47;5121510;28;20027;-74
2022/05/24 00:28:08;;;;;;;5.40;2.55;;;;;;;18.86;63.96;99481.78;5120011;28;20036;-74
2022/05/24 00:30:34;;;;;;;6.85;2.70;;;;;;;18.95;63.57;99477.75;5121737;28;20095;-74
2022/05/24 00:33:00;;;;;;;9.13;2.60;;;;;;;18.89;63.61;99489.38;5121062;28;20234;-74
2022/05/24 00:35:25;;;;;;;6.15;3.17;;;;;;;18.79;63.84;99475.66;5119135;28;20313;-74
2022/05/24 00:37:51;;;;;;;6.20;2.63;;;;;;;18.83;64.00;99484.09;5120873;28;20376;-74
2022/05/24 00:40:43;;;;;;;6.80;3.17;;;;;;;18.74;63.97;99484.38;5122009;28;20027;-74
2022/05/24 00:43:26;;;;;;;4.72;2.45;;;;;;;18.72;64.32;99477.56;5112687;28;20043;-73
2022/05/24 00:45:56;;;;;;;7.30;2.63;;;;;;;18.78;63.91;99464.13;5118677;28;20032;-74
2022/05/24 00:48:51;;;;;;;5.85;2.97;;;;;;;19.03;63.62;99480.16;5121541;28;20051;-73
2022/05/24 00:51:26;;;;;;;4.95;2.75;;;;;;;18.72;62.91;99410.50;5118213;28;20229;-74
2022/05/24 00:53:53;;;;;;;6.03;2.95;;;;;;;18.91;63.76;99470.38;5118296;28;20119;-74
2022/05/24 00:56:34;;;;;;;7.22;3.17;;;;;;;19.04;63.16;99462.19;5119345;28;20050;-74
2022/05/24 00:59:04;;;;;;;6.15;2.45;;;;;;;19.08;63.03;99471.44;5103096;28;20228;-73
2022/05/24 01:01:39;;;;;;;6.65;2.65;;;;;;;19.04;63.21;99479.09;5120718;28;20263;-74
2022/05/24 01:04:07;;;;;;;7.32;2.40;;;;;;;19.19;62.65;99475.22;5118219;28;20051;-74
2022/05/24 01:06:33;;;;;;;7.57;3.10;;;;;;;19.21;62.37;99473.16;5117903;28;20058;-73
2022/05/24 01:09:03;;;;;;;8.77;2.90;;;;;;;19.08;62.81;99476.81;5119608;28;20035;-74
2022/05/24 01:11:32;;;;;;;6.15;2.50;;;;;;;18.98;63.23;99461.22;5121000;28;20039;-74
2022/05/24 01:13:59;;;;;;;6.30;3.15;;;;;;;18.97;63.59;99469.50;5098785;28;20229;-73
2022/05/24 01:16:25;;;;;;;4.50;2.40;;;;;;;18.94;63.67;99468.06;5101032;28;20352;-74
2022/05/24 01:18:50;;;;;;;9.88;2.70;;;;;;;18.95;63.72;99469.72;5099456;28;20039;-74
2022/05/24 01:21:17;;;;;;;5.00;2.50;;;;;;;18.95;63.77;99460.84;5099275;28;20061;-74
2022/05/24 01:24:24;;;;;;;6.20;2.60;;;;;;;18.90;64.02;99469.56;5101419;28;20058;-74
2022/05/24 01:26:54;;;;;;;5.85;2.10;;;;;;;18.83;64.13;99478.72;5098959;28;20044;-74
2022/05/24 01:29:21;;;;;;;6.03;2.53;;;;;;;18.83;64.28;99478.72;5100359;28;20540;-73
2022/05/24 01:37:17;;;;;;;5.60;2.65;;;;;;;18.60;64.61;99492.69;5094919;28;20067;-74
2022/05/24 01:39:45;;;;;;;5.43;2.72;;;;;;;18.64;64.53;99489.38;5100440;28;20091;-73
2022/05/24 01:42:12;;;;;;;5.00;2.67;;;;;;;18.60;64.36;99471.25;5099299;28;20036;-74
2022/05/24 01:45:03;;;;;;;5.80;2.60;;;;;;;18.68;64.48;99471.81;5097742;28;20039;-74
2022/05/24 01:47:30;;;;;;;7.32;2.60;;;;;;;18.71;64.14;99476.75;5097246;28;20047;-74
2022/05/24 01:49:59;;;;;;;5.53;2.60;;;;;;;18.59;64.54;99475.78;5101134;28;20032;-73
2022/05/24 01:52:48;;;;;;;6.68;2.53;;;;;;;18.63;64.33;99478.88;5099358;28;20032;-74
2022/05/24 01:55:19;;;;;;;7.95;3.03;;;;;;;18.47;64.80;99480.22;5099190;28;20051;-73
2022/05/24 01:57:50;;;;;;;8.25;2.58;;;;;;;18.55;64.24;99482.63;5099403;28;20131;-74
2022/05/24 02:00:16;;;;;;;6.93;2.50;;;;;;;18.47;64.52;99478.38;5098484;28;20042;-74
2022/05/24 02:02:42;;;;;;;8.02;2.50;;;;;;;18.50;64.65;99477.13;5099629;28;20024;-74
2022/05/24 02:05:09;;;;;;;7.85;2.78;;;;;;;18.55;63.44;99471.09;5100775;28;20047;-73
2022/05/24 02:07:35;;;;;;;7.15;2.85;;;;;;;18.45;64.26;99493.84;5098784;28;20071;-74
2022/05/24 02:10:00;;;;;;;5.80;2.70;;;;;;;18.45;64.55;99493.84;5100345;28;20326;-73
2022/05/24 02:12:49;;;;;;;15.50;3.00;;;;;;;18.47;64.77;99493.63;5105413;28;20074;-73
2022/05/24 02:15:18;;;;;;;4.35;2.47;;;;;;;18.35;64.49;99498.88;5121007;28;20032;-73
2022/05/24 02:17:59;;;;;;;7.15;2.58;;;;;;;18.19;65.35;99500.25;5119668;28;20048;-73
2022/05/24 02:20:39;;;;;;;5.70;2.47;;;;;;;18.17;65.90;99507.69;5102104;28;20027;-73
2022/05/24 02:23:06;;;;;;;6.93;2.80;;;;;;;18.17;65.95;99507.69;5123997;28;20229;-74
2022/05/24 02:25:38;;;;;;;6.90;3.20;;;;;;;18.16;66.06;99505.22;5123242;28;20039;-73
2022/05/24 02:28:08;;;;;;;5.80;2.78;;;;;;;18.02;66.94;99506.34;5124923;28;20050;-73
2022/05/24 02:30:35;;;;;;;7.30;3.08;;;;;;;17.95;67.38;99511.75;5104639;28;20351;-73
2022/05/24 02:33:01;;;;;;;8.30;2.97;;;;;;;17.94;67.51;99509.28;5123680;28;20039;-74
2022/05/24 02:35:27;;;;;;;5.97;3.10;;;;;;;17.91;67.87;99509.72;5122574;28;20304;-73
2022/05/24 02:37:52;;;;;;;7.07;3.30;;;;;;;17.86;67.76;99513.84;5121551;27;20035;-74
2022/05/24 02:43:01;;;;;;;7.47;2.97;;;;;;;17.90;67.67;99518.78;5121947;28;20035;-74
2022/05/24 02:45:27;;;;;;;9.75;3.30;;;;;;;17.97;67.49;99511.53;5121415;28;20039;-74
2022/05/24 02:47:52;;;;;;;5.07;2.85;;;;;;;18.09;66.93;99501.75;5123785;28;20023;-74
2022/05/24 02:50:20;;;;;;;8.57;2.92;;;;;;;18.19;66.51;99512.81;5123782;28;20027;-74
2022/05/24 02:52:46;;;;;;;8.07;3.03;;;;;;;18.17;66.29;99512.22;5122253;28;20317;-74
2022/05/24 02:55:13;;;;;;;5.95;2.67;;;;;;;18.17;66.40;99515.72;5124060;28;20019;-74
2022/05/24 02:57:39;;;;;;;4.20;2.72;;;;;;;18.29;65.63;99520.38;5103865;28;20257;-74
2022/05/24 03:00:08;;;;;;;5.40;3.25;;;;;;;18.38;64.88;99525.25;5123380;28;20035;-74
2022/05/24 03:02:33;;;;;;;11.07;2.97;;;;;;;18.24;65.47;99510.31;5123510;28;20042;-73
2022/05/24 03:05:00;;;;;;;9.13;3.15;;;;;;;18.25;65.35;99505.78;5121613;28;20094;-74
2022/05/24 03:10:10;;;;;;;7.03;2.92;;;;;;;18.19;65.76;99531.59;5123176;28;20035;-73
2022/05/24 03:15:19;;;;;;;9.27;3.15;;;;;;;18.35;65.70;99523.00;5121990;28;20504;-73
2022/05/24 03:17:44;;;;;;;13.48;3.78;;;;;;;18.38;65.38;99527.13;5124150;28;20032;-74
2022/05/24 03:20:10;;;;;;;8.30;3.30;;;;;;;18.43;65.27;99530.78;5121991;28;20035;-74
2022/05/24 03:22:36;;;;;;;7.53;2.85;;;;;;;18.46;64.80;99543.75;5121204;28;20099;-73
2022/05/24 03:25:02;;;;;;;8.85;3.13;;;;;;;18.50;64.75;99536.09;5101748;28;20028;-74
2022/05/24 03:27:27;;;;;;;9.32;2.92;;;;;;;18.54;65.04;99537.31;5123083;28;20305;-74
2022/05/24 03:29:52;;;;;;;8.65;3.30;;;;;;;18.68;64.38;99532.69;5122139;28;20030;-74
2022/05/24 03:32:18;;;;;;;6.95;2.88;;;;;;;18.77;64.05;99537.56;5121827;28;20038;-74
2022/05/24 03:34:45;;;;;;;8.32;3.28;;;;;;;18.72;63.96;99536.56;5122631;28;20039;-73
2022/05/24 03:37:11;;;;;;;10.32;3.38;;;;;;;18.72;64.29;99529.34;5123926;28;20104;-74
2022/05/24 03:39:36;;;;;;;7.88;3.30;;;;;;;18.62;64.54;99541.59;5124217;28;20309;-73
2022/05/24 03:42:03;;;;;;;7.22;2.75;;;;;;;18.40;64.97;99539.25;5124053;28;20046;-74
2022/05/24 03:44:29;;;;;;;10.50;3.25;;;;;;;18.30;65.38;99538.09;5124012;28;20032;-73
2022/05/24 03:46:55;;;;;;;10.60;3.08;;;;;;;18.29;65.24;99533.78;5124058;28;20046;-73
2022/05/24 03:49:21;;;;;;;11.57;3.75;;;;;;;18.32;65.54;99533.34;5123737;28;20322;-73
2022/05/24 03:51:47;;;;;;;5.75;2.92;;;;;;;18.50;64.63;99547.63;5105624;28;20023;-74
2022/05/24 03:54:12;;;;;;;9.80;3.35;;;;;;;18.58;64.29;99548.41;5123933;28;20195;-73
2022/05/24 03:56:38;;;;;;;10.38;2.78;;;;;;;18.64;64.46;99543.03;5123642;28;20300;-74
2022/05/24 03:59:04;;;;;;;5.95;3.38;;;;;;;18.42;65.17;99536.38;5123639;28;20325;-73
2022/05/24 04:01:30;;;;;;;8.25;3.22;;;;;;;18.22;67.07;99517.75;5123561;28;20038;-74
2022/05/24 04:03:55;;;;;;;9.05;3.50;;;;;;;18.41;66.10;99540.09;5123395;28;20036;-74
2022/05/24 04:06:21;;;;;;;5.70;3.28;;;;;;;18.56;64.94;99555.84;5123619;28;20041;-74
2022/05/24 04:08:46;;;;;;;6.47;2.83;;;;;;;18.61;65.14;99554.19;5123374;28;20348;-74
2022/05/24 04:11:12;;;;;;;6.53;3.35;;;;;;;18.69;65.09;99555.78;5123430;28;20020;-74
2022/05/24 04:13:40;;;;;;;8.30;3.00;;;;;;;18.87;64.05;99549.66;5123204;28;20050;-74
2022/05/24 04:16:07;;;;;;;6.57;2.80;;;;;;;18.93;63.84;99563.03;5123334;28;20088;-73
2022/05/24 04:18:33;;;;;;;8.68;2.97;;;;;;;18.99;63.12;99566.69;5123014;28;20116;-74
2022/05/24 04:20:58;;;;;;;7.00;3.15;;;;;;;18.81;64.03;99568.28;5123316;28;20317;-73
2022/05/24 04:23:25;;;;;;;9.00;3.10;;;;;;;18.85;64.21;99563.31;5123543;28;20325;-74
2022/05/24 04:25:52;;;;;;;11.10;3.40;;;;;;;18.50;64.91;99562.91;5121986;28;20028;-74
2022/05/24 04:28:21;;;;;;;10.98;3.90;;;;;;;18.03;66.52;99559.72;5122957;28;20039;-73
2022/05/24 04:30:48;;;;;;;9.98;3.83;;;;;;;18.02;66.41;99554.56;5102623;28;20091;-74
2022/05/24 04:33:15;;;;;;;9.48;3.97;;;;;;;17.93;68.43;99570.06;5121691;28;20032;-73
2022/05/24 04:35:42;;;;;;;9.80;4.35;;;;;;;17.75;67.96;99568.09;5122499;28;20031;-73
2022/05/24 04:38:08;;;;;;;9.38;3.30;;;;;;;18.17;67.55;99568.50;5120250;28;20057;-73
2022/05/24 04:43:17;;;;;;;9.95;3.70;;;;;;;17.33;70.62;99558.72;5101131;28;20039;-73
2022/05/24 04:45:43;;;;;;;7.50;3.83;;;;;;;17.46;70.03;99556.00;5108791;28;20031;-74
2022/05/24 04:48:08;;;;;;;6.75;3.47;;;;;;;17.32;71.40;99558.91;5119930;28;20035;-73
2022/05/24 04:50:34;;;;;;;9.75;3.22;;;;;;;17.35;69.87;99562.00;5121432;28;20042;-73
2022/05/24 04:53:00;;;;;;;13.23;3.03;;;;;;;17.85;68.74;99557.75;5120332;28;20043;-73
2022/05/24 04:55:27;;;;;;;6.15;2.90;;;;;;;17.83;68.01;99561.66;5118220;28;20032;-74
2022/05/24 04:57:53;;;;;;;6.63;3.17;;;;;;;18.15;66.83;99565.22;5097483;28;20330;-73
2022/05/24 05:00:20;;;;;;;4.57;2.95;;;;;;;18.88;64.22;99570.91;5100858;28;20214;-74
2022/05/24 05:02:46;;;;;;;10.23;3.05;;;;;;;19.63;60.95;99576.97;5101067;28;20028;-74
2022/05/24 05:05:13;;;;;;;6.80;3.08;;;;;;;20.25;59.27;99572.25;5121138;28;20028;-74
2022/05/24 05:07:39;;;;;;;8.00;2.92;;;;;;;20.25;58.02;99568.75;5120217;28;20027;-74
2022/05/24 05:10:06;;;;;;;11.93;3.30;;;;;;;20.62;57.01;99580.22;5122145;28;20031;-73
2022/05/24 05:12:32;;;;;;;8.95;3.70;;;;;;;20.56;57.15;99587.34;5120527;28;20061;-73
2022/05/24 05:14:57;;;;;;;6.93;2.90;;;;;;;20.94;55.77;99595.03;5118690;28;20031;-74
2022/05/24 05:17:23;;;;;;;6.03;2.78;;;;;;;20.89;55.66;99589.53;5120427;28;20035;-74
2022/05/24 05:19:49;;;;;;;7.75;2.50;;;;;;;21.32;54.24;99589.19;5119735;28;20042;-74
2022/05/24 05:22:16;;;;;;;7.35;2.80;;;;;;;21.16;54.51;99589.88;5118272;28;20332;-74
2022/05/24 05:24:41;;;;;;;9.52;3.50;;;;;;;21.34;53.94;99573.63;5118175;28;20042;-74
2022/05/24 05:27:07;;;;;;;8.60;2.75;;;;;;;21.56;53.21;99583.78;5119149;28;20043;-74
2022/05/24 05:32:23;;;;;;;7.97;2.65;;;;;;;21.06;54.17;99576.19;5117120;28;20023;-74
2022/05/24 05:34:49;;;;;;;7.88;3.08;;;;;;;20.81;54.95;99557.56;5120962;28;20083;-74
2022/05/24 05:37:15;;;;;;;7.90;3.22;;;;;;;21.33;53.35;99557.69;5119944;28;20031;-74
2022/05/24 05:39:41;;;;;;;9.05;2.47;;;;;;;21.53;53.95;99565.38;5118981;28;20062;-74
2022/05/24 05:42:07;;;;;;;5.35;2.78;;;;;;;21.69;53.26;99575.44;5117907;28;20036;-74
2022/05/24 05:44:32;;;;;;;8.05;3.00;;;;;;;22.15;52.04;99569.09;5118834;28;20546;-74
2022/05/24 05:46:58;;;;;;;8.27;2.78;;;;;;;22.44;51.61;99577.97;5118016;28;20039;-74
2022/05/24 05:49:23;;;;;;;9.50;3.03;;;;;;;22.08;50.21;99573.81;5118110;28;20031;-74
2022/05/24 05:51:49;;;;;;;8.30;2.90;;;;;;;22.02;50.66;99550.50;5117435;28;20023;-74
2022/05/24 05:54:15;;;;;;;8.20;2.63;;;;;;;22.56;49.67;99584.13;5105203;28;20032;-74
2022/05/24 05:56:41;;;;;;;6.75;2.78;;;;;;;22.73;50.53;99588.72;5124605;28;20228;-75
2022/05/24 05:59:06;;;;;;;7.60;2.25;;;;;;;22.99;49.29;99584.59;5122458;28;20046;-73
2022/05/24 06:01:32;;;;;;;9.07;2.63;;;;;;;22.94;48.76;99582.63;5122766;28;20058;-73
2022/05/24 06:03:58;;;;;;;16.63;3.13;;;;;;;23.21;47.86;99578.19;5122090;28;20030;-74
2022/05/24 06:06:28;;;;;;;6.38;2.42;;;;;;;23.24;48.65;99583.09;5122748;28;20039;-73
2022/05/24 06:08:54;;;;;;;11.02;2.70;;;;;;;22.86;47.79;99573.03;5121445;28;20032;-74
2022/05/24 06:11:19;;;;;;;10.00;2.85;;;;;;;22.59;50.44;99578.25;5103484;28;20027;-74
2022/05/24 06:13:44;;;;;;;4.88;2.63;;;;;;;22.37;50.74;99579.19;5122603;28;20043;-74
2022/05/24 06:16:10;;;;;;;12.23;2.55;;;;;;;22.01;51.53;99592.00;5121571;28;20091;-74
2022/05/24 06:18:36;;;;;;;10.13;2.80;;;;;;;21.83;50.55;99595.66;5122601;28;20031;-74
2022/05/24 06:21:02;;;;;;;6.32;2.50;;;;;;;22.09;48.92;99591.66;5124012;28;20325;-74
2022/05/24 06:23:28;;;;;;;9.02;3.05;;;;;;;22.49;49.50;99585.34;5124002;28;20095;-74
2022/05/24 06:25:53;;;;;;;6.28;3.08;;;;;;;22.28;50.00;99582.28;5123692;28;20081;-74
2022/05/24 06:28:19;;;;;;;12.27;2.97;;;;;;;22.42;50.25;99573.91;5125552;28;20084;-74
2022/05/24 06:30:44;;;;;;;5.70;2.95;;;;;;;22.85;49.11;99578.69;5103397;28;20058;-74
2022/05/24 06:33:11;;;;;;;5.65;2.40;;;;;;;23.38;46.89;99575.44;5102696;28;20032;-74
2022/05/24 06:35:38;;;;;;;4.55;2.05;;;;;;;23.90;45.59;99591.25;5122395;28;20031;-74
2022/05/24 06:38:04;;;;;;;7.68;2.67;;;;;;;24.45;43.65;99587.56;5121604;28;20076;-74
2022/05/24 06:40:30;;;;;;;7.38;2.20;;;;;;;24.86;41.02;99586.03;5121333;28;20027;-74
2022/05/24 06:42:55;;;;;;;10.23;2.22;;;;;;;24.66;40.10;99578.56;5121882;27;20098;-74
2022/05/24 06:45:21;;;;;;;7.35;2.17;;;;;;;25.60;39.06;99594.13;5120872;28;20066;-75
2022/05/24 06:47:46;;;;;;;4.00;1.83;;;;;;;25.57;38.12;99594.66;5120820;28;20121;-74
2022/05/24 06:50:13;;;;;;;7.85;2.50;;;;;;;24.88;39.91;99583.88;5121931;28;20199;-74
2022/05/24 06:52:39;;;;;;;6.15;2.10;;;;;;;24.20;41.84;99591.63;5120847;28;20036;-74
2022/05/24 06:55:06;;;;;;;5.80;2.20;;;;;;;23.87;42.67;99591.78;5123496;28;20031;-74
2022/05/24 06:57:31;;;;;;;7.50;2.13;;;;;;;23.52;43.74;99590.22;5123523;28;20061;-74
2022/05/24 07:02:41;;;;;;;7.88;2.47;;;;;;;23.11;45.37;99594.25;5121647;28;20042;-74
2022/05/24 07:05:10;;;;;;;3.75;2.13;;;;;;;22.99;45.20;99598.91;5120198;28;20036;-74
2022/05/24 07:07:36;;;;;;;4.43;2.05;;;;;;;22.54;45.14;99596.22;5122877;28;20040;-74
2022/05/24 07:10:05;;;;;;;6.40;2.17;;;;;;;21.85;47.06;99588.19;5122422;28;20031;-74
2022/05/24 07:12:31;;;;;;;7.57;3.13;;;;;;;21.36;48.77;99597.63;5121449;28;20047;-74
2022/05/24 07:14:58;;;;;;;6.60;2.28;;;;;;;21.43;48.31;99595.63;5120822;28;20057;-74
2022/05/24 07:17:23;;;;;;;4.63;2.00;;;;;;;21.41;49.05;99588.84;5120834;28;20213;-74
2022/05/24 07:19:50;;;;;;;8.27;2.65;;;;;;;21.82;47.58;99588.63;5103006;28;20027;-74
2022/05/24 07:22:15;;;;;;;8.75;3.05;;;;;;;21.84;47.62;99580.31;5122981;28;20034;-74
2022/05/24 07:24:41;;;;;;;7.70;3.40;;;;;;;21.88;47.51;99581.50;5119993;28;21244;-73
2022/05/24 07:27:10;;;;;;;4.70;2.33;;;;;;;21.99;46.98;99572.53;5120438;28;20032;-74
2022/05/24 07:29:36;;;;;;;6.55;1.83;;;;;;;22.48;45.29;99581.84;5120135;28;20225;-74
2022/05/24 07:32:02;;;;;;;7.05;1.92;;;;;;;23.15;43.39;99591.88;5119797;28;20059;-74
2022/05/24 07:34:28;;;;;;;6.60;2.58;;;;;;;23.77;42.53;99583.53;5123424;28;20042;-74
2022/05/24 07:36:54;;;;;;;7.40;2.03;;;;;;;24.26;40.35;99581.69;5122160;28;20095;-74
2022/05/24 07:39:19;;;;;;;5.15;2.08;;;;;;;23.93;41.24;99574.56;5120398;28;20058;-73
2022/05/24 07:47:13;;;;;;;5.97;1.90;;;;;;;25.09;39.04;99571.34;5120839;28;20104;-74
2022/05/24 07:49:39;;;;;;;8.40;2.10;;;;;;;25.67;37.88;99575.75;5119848;28;20031;-74
2022/05/24 07:52:05;;;;;;;6.70;2.05;;;;;;;25.98;37.04;99576.69;5120970;28;20039;-74
2022/05/24 07:54:32;;;;;;;8.52;1.75;;;;;;;26.31;37.48;99574.59;5120886;28;20106;-74
2022/05/24 07:56:57;;;;;;;9.32;1.70;;;;;;;26.06;37.53;99569.94;5122091;28;20546;-74
2022/05/24 07:59:23;;;;;;;4.03;1.88;;;;;;;25.46;38.01;99568.56;5119963;28;20040;-74
2022/05/24 08:01:48;;;;;;;3.38;1.77;;;;;;;25.45;38.14;99577.78;5120791;28;20031;-74
2022/05/24 08:04:14;;;;;;;9.70;1.85;;;;;;;25.49;37.56;99575.38;5119877;28;20019;-74
2022/05/24 08:06:40;;;;;;;6.05;2.00;;;;;;;25.96;36.61;99567.19;5120592;28;20050;-74
2022/05/24 08:09:05;;;;;;;17.42;2.63;;;;;;;25.85;37.13;99566.31;5119753;28;20024;-74
2022/05/24 08:11:31;;;;;;;14.10;6.72;;;;;;;26.28;35.73;99556.97;5119508;28;20065;-74
2022/05/24 08:13:59;;;;;;;14.82;4.10;;;;;;;26.18;35.68;99554.22;5119893;28;20035;-74
2022/05/24 08:16:26;;;;;;;7.60;3.38;;;;;;;25.68;36.78;99566.53;5119069;28;20188;-74
2022/05/24 08:18:51;;;;;;;10.38;4.80;;;;;;;25.79;36.51;99561.97;5119043;28;20068;-74
2022/05/24 08:21:17;;;;;;;12.27;6.03;;;;;;;25.51;37.65;99554.22;5120126;28;20023;-74
2022/05/24 08:23:43;;;;;;;11.93;5.90;;;;;;;25.51;37.61;99554.22;5120239;28;20096;-74
2022/05/24 08:26:08;;;;;;;7.80;3.65;;;;;;;25.73;36.83;99552.19;5121896;28;20031;-74
2022/05/24 08:28:34;;;;;;;6.45;3.30;;;;;;;25.63;36.85;99552.94;5120877;28;20032;-74
2022/05/24 08:31:00;;;;;;;7.72;2.70;;;;;;;25.12;39.01;99541.84;5123116;28;20024;-74
2022/05/24 08:33:28;;;;;;;5.32;2.33;;;;;;;25.18;37.10;99552.72;5120684;28;20138;-74
2022/05/24 08:35:54;;;;;;;3.78;2.00;;;;;;;25.10;38.01;99549.41;5119038;28;20023;-74
2022/05/24 08:38:22;;;;;;;4.63;2.22;;;;;;;25.14;37.99;99536.16;5119981;28;20236;-74
2022/05/24 08:40:48;;;;;;;8.90;2.20;;;;;;;25.58;36.87;99520.38;5118781;28;20328;-74
2022/05/24 08:43:35;;;;;;;7.55;2.10;;;;;;;25.82;37.16;99514.50;5118786;27;20259;-74
2022/05/24 08:48:58;;;;;;;5.45;2.90;;;;;;;24.41;41.15;99516.91;5117774;28;20047;-74
2022/05/24 08:51:28;;;;;;;4.60;2.33;;;;;;;24.05;42.07;99514.91;5118607;28;20043;-74
2022/05/24 08:54:15;;;;;;;5.72;2.55;;;;;;;23.46;42.85;99529.06;5101007;28;20042;-74
2022/05/24 08:56:57;;;;;;;8.43;2.60;;;;;;;23.55;42.84;99530.31;5099854;28;20141;-74
2022/05/24 08:59:36;;;;;;;4.75;2.55;;;;;;;24.16;42.10;99533.69;5097185;28;20034;-74
2022/05/24 09:02:04;;;;;;;9.43;2.30;;;;;;;24.95;39.90;99543.03;5115210;28;20039;-74
2022/05/24 09:04:30;;;;;;;8.55;2.72;;;;;;;25.22;39.56;99546.50;5119188;28;20037;-74
2022/05/24 09:07:05;;;;;;;11.88;2.00;;;;;;;25.57;39.36;99545.03;5120211;28;20237;-74
2022/05/24 09:10:12;;;;;;;6.00;2.75;;;;;;;25.38;38.97;99553.63;5121161;28;20019;-74
2022/05/24 09:13:10;;;;;;;8.70;2.47;;;;;;;25.90;37.08;99531.09;5093914;28;20351;-74
2022/05/24 09:15:48;;;;;;;6.22;2.45;;;;;;;26.46;37.08;99525.78;5119494;28;20047;-74
2022/05/24 09:18:43;;;;;;;5.15;2.15;;;;;;;26.59;37.75;99521.72;5099817;28;20092;-74
2022/05/24 09:21:18;;;;;;;;;;;;;;;25.97;37.25;99519.97;5094511;28;20043;-74
2022/05/24 09:23:52;;;;;;;7.45;2.33;;;;;;;25.84;37.53;99517.78;5119753;28;19915;-74
2022/05/24 09:26:24;;;;;;;7.95;2.58;;;;;;;25.80;37.89;99524.81;5118228;28;20031;-74
2022/05/24 09:28:58;;;;;;;5.82;2.30;;;;;;;26.11;38.14;99523.00;5117991;28;20027;-74
2022/05/24 09:31:41;;;;;;;9.43;2.65;;;;;;;25.67;38.95;99526.94;5118019;28;20040;-73
2022/05/24 09:34:18;;;;;;;9.63;2.53;;;;;;;25.61;39.42;99519.03;5118171;28;20039;-74
2022/05/24 09:36:55;;;;;;;8.57;2.33;;;;;;;25.59;40.14;99521.19;5121193;28;20329;-74
2022/05/24 09:39:24;;;;;;;6.10;2.10;;;;;;;25.87;39.29;99517.22;5100597;28;20268;-74
2022/05/24 09:42:14;;;;;;;7.90;2.58;;;;;;;25.87;40.35;99520.75;5118831;28;20046;-74
2022/05/24 09:44:51;;;;;;;7.32;2.47;;;;;;;25.99;38.91;99515.91;5118016;28;20102;-74
2022/05/24 09:47:33;;;;;;;5.47;2.40;;;;;;;26.44;39.05;99495.38;5118602;28;20096;-75
2022/05/24 09:50:34;;;;;;;5.25;2.40;;;;;;;26.78;38.26;99495.63;5117988;28;20098;-74
2022/05/24 09:53:02;;;;;;;7.65;2.60;;;;;;;26.13;39.21;99501.84;5116117;28;20317;-74
2022/05/24 09:55:49;;;;;;;9.27;2.58;;;;;;;25.88;38.92;99502.59;5118669;28;20404;-74
2022/05/24 09:58:29;;;;;;;5.85;2.90;;;;;;;24.98;41.15;99513.59;5118011;28;20329;-74
2022/05/24 10:01:09;;;;;;;7.78;2.70;;;;;;;24.61;41.75;99505.41;5117715;28;20094;-74
2022/05/24 10:03:48;;;;;;;8.93;2.95;;;;;;;25.21;40.45;99495.28;5119202;28;20035;-74
2022/05/24 10:06:30;;;;;;;9.63;3.00;;;;;;;24.95;41.35;99513.22;5120740;28;20050;-74
2022/05/24 10:09:22;;;;;;;4.25;2.60;;;;;;;24.93;41.30;99501.84;5118409;28;20028;-74
2022/05/24 10:11:56;;;;;;;6.28;2.47;;;;;;;24.86;42.68;99507.50;5115656;28;20043;-74
2022/05/24 10:14:30;;;;;;;14.27;3.17;;;;;;;25.01;41.62;99502.22;5115433;28;20336;-74
2022/05/24 10:17:17;;;;;;;4.35;2.17;;;;;;;25.23;41.02;99501.25;5118511;28;20030;-74
2022/05/24 10:19:56;;;;;;;10.43;2.78;;;;;;;25.50;40.21;99498.38;5115225;28;20265;-74
2022/05/24 10:22:31;;;;;;;7.57;2.40;;;;;;;25.10;40.75;99499.84;5114875;28;20228;-74
2022/05/24 10:24:59;;;;;;;5.88;2.33;;;;;;;25.13;41.26;99505.53;5118068;28;20277;-74
2022/05/24 10:27:24;;;;;;;6.88;2.80;;;;;;;25.09;41.27;99500.91;5118004;28;20027;-74
2022/05/24 10:29:54;;;;;;;9.32;2.60;;;;;;;25.39;41.20;99505.66;5117464;28;20068;-74
2022/05/24 10:38:40;;;;;;;9.73;2.90;;;;;;;25.55;40.26;99477.53;5118352;28;20259;-74
2022/05/24 10:41:12;;;;;;;5.25;2.22;;;;;;;25.65;40.37;99466.75;5113698;28;20365;-74
2022/05/24 10:43:53;;;;;;;2.75;2.13;;;;;;;25.48;39.98;99470.72;5120847;28;20382;-74
2022/05/24 10:46:43;;;;;;;5.30;2.30;;;;;;;25.62;40.06;99466.44;5120816;28;20020;-74
2022/05/24 10:49:22;;;;;;;9.10;2.53;;;;;;;25.18;40.11;99460.59;5121101;28;20313;-74
2022/05/24 10:51:50;;;;;;;11.93;2.50;;;;;;;25.34;40.40;99451.44;5123464;28;20036;-74
2022/05/24 10:54:36;;;;;;;14.68;2.92;;;;;;;25.42;41.04;99440.91;5121802;28;20078;-74
2022/05/24 10:57:22;;;;;;;5.60;2.70;;;;;;;25.58;41.05;99430.91;5121658;28;20034;-74
2022/05/24 11:00:15;;;;;;;5.03;2.70;;;;;;;25.50;40.90;99430.63;5115009;28;20042;-74
2022/05/24 11:03:02;;;;;;;17.17;3.22;;;;;;;25.49;40.26;99431.69;5123420;28;20036;-74
2022/05/24 11:05:35;;;;;;;8.70;2.78;;;;;;;25.29;40.62;99430.56;5121358;28;20063;-74
2022/05/24 11:08:07;;;;;;;6.05;2.40;;;;;;;25.12;41.54;99430.75;5091706;28;20062;-74
2022/05/24 11:10:39;;;;;;;4.70;2.28;;;;;;;25.42;42.03;99431.94;5118037;28;20034;-75
2022/05/24 11:13:10;;;;;;;7.57;2.55;;;;;;;25.83;41.61;99435.59;5120714;28;20107;-74
2022/05/24 11:16:00;;;;;;;7.45;2.10;;;;;;;25.26;41.36;99425.66;5120771;28;20360;-74
2022/05/24 11:18:26;;;;;;;8.82;2.33;;;;;;;25.49;42.73;99416.25;5120336;28;20062;-74
2022/05/24 11:21:21;;;;;;;9.20;2.88;;;;;;;25.60;41.44;99407.06;5120500;28;20081;-74
2022/05/24 11:24:14;;;;;;;6.55;2.65;;;;;;;25.48;43.29;99387.50;5119997;28;20023;-74
2022/05/24 11:26:50;;;;;;;11.80;2.92;;;;;;;25.22;44.35;99377.69;5117496;28;20317;-74
2022/05/24 11:29:28;;;;;;;10.27;2.80;;;;;;;25.41;44.07;99368.78;5117361;28;20340;-74
2022/05/24 11:32:01;;;;;;;5.60;2.60;;;;;;;25.14;43.43;99381.72;5117522;28;20023;-73
2022/05/24 11:34:33;;;;;;;9.15;2.83;;;;;;;25.43;42.85;99377.47;5119990;28;20070;-74
2022/05/24 11:37:25;;;;;;;9.88;2.70;;;;;;;25.31;44.50;99387.75;5120120;28;20199;-75
2022/05/24 11:39:52;;;;;;;6.80;2.60;;;;;;;24.98;45.10;99390.88;5119519;28;20078;-74
2022/05/24 11:42:33;;;;;;;8.68;3.30;;;;;;;24.97;47.36;99408.16;5120130;28;20309;-74
2022/05/24 11:45:19;;;;;;;8.45;3.55;;;;;;;24.97;47.64;99408.16;5099196;28;20024;-74
2022/05/24 11:47:48;;;;;;;9.07;3.22;;;;;;;25.06;47.15;99428.28;5120216;28;20099;-74
2022/05/24 11:50:28;;;;;;;6.03;2.80;;;;;;;25.39;45.92;99419.75;5120291;28;20095;-73
2022/05/24 11:53:10;;;;;;;7.50;3.10;;;;;;;25.80;44.71;99416.31;5120248;28;20048;-74
2022/05/24 11:55:43;;;;;;;8.25;2.60;;;;;;;26.15;43.63;99426.41;5117231;28;20059;-74
2022/05/24 11:58:41;;;;;;;8.45;2.92;;;;;;;26.13;43.26;99436.72;5101160;28;20076;-74
2022/05/24 12:01:16;;;;;;;4.15;2.75;;;;;;;26.05;42.81;99427.22;5122309;28;20411;-74
2022/05/24 12:10:36;;;;;;;6.85;3.05;;;;;;;25.82;45.09;99438.56;5123675;28;20031;-74
2022/05/24 12:13:05;;;;;;;11.70;2.90;;;;;;;25.80;44.19;99444.25;5066731;28;20048;-74
2022/05/24 12:16:07;;;;;;;4.53;3.15;;;;;;;25.73;45.48;99446.41;5123446;28;20121;-73
2022/05/24 12:18:59;;;;;;;7.03;3.20;;;;;;;25.80;44.34;99446.16;5105067;28;20228;-74
2022/05/24 12:21:50;;;;;;;9.02;3.33;;;;;;;25.83;43.63;99437.50;5123252;28;20063;-72
2022/05/24 12:24:43;;;;;;;7.55;3.08;;;;;;;25.89;44.52;99439.13;5123218;28;20047;-74
2022/05/24 12:27:15;;;;;;;6.18;3.00;;;;;;;25.90;43.30;99441.56;5120428;28;20028;-75
2022/05/24 12:29:43;;;;;;;6.30;3.10;;;;;;;25.91;42.59;99436.94;5122986;28;20035;-74
2022/05/24 12:32:09;;;;;;;5.97;3.20;;;;;;;25.93;42.28;99426.66;5123147;28;20210;-74